Chingford, United Kingdom
Current Conditions -  °F | °C
As of 12:20 PM on Friday 28 Nov 2014 (Local Time) from EGLC Reporting Station
Broken Clouds Broken Clouds  
Wind Chill: 54°   Ceiling: 1200
Heat Index: 54°   Visibility: 4mi
Dew Point: 48°   Wind: 15mph
Humidity: 82%   Direction: 80°E
Pressure: 29.59"   Gusts: NA
Location:  51.63°N, 0.01°E
Report Text: EGLC 281220Z 08013KT 7000 BKN012 12/09 Q1002
Loading
Personal Weather Stations






























Interactive Weather Map New forecast layout! Learn more

10-Day Weather Forecast

Advertisements
Track Severe Weather on mobile